createdAt,value
2023-05-11T00:02:27.327Z,28.335
2023-05-11T00:17:29.183Z,28.3542
2023-05-11T00:32:30.898Z,28.01
2023-05-11T00:47:32.651Z,28.2273
2023-05-11T01:02:34.446Z,28.4811
2023-05-11T01:17:36.235Z,28.8222
2023-05-11T01:32:39.577Z,28.1691
2023-05-11T01:47:43.339Z,28.4941
2023-05-11T02:02:45.279Z,28.3932
2023-05-11T02:17:47.126Z,28.2112
2023-05-11T02:32:48.884Z,27.6652
2023-05-11T02:47:50.739Z,28.2403
2023-05-11T03:02:52.529Z,28.3542
2023-05-11T03:17:54.385Z,28.2044
2023-05-11T03:32:56.165Z,27.7723
2023-05-11T03:47:57.930Z,28.1914
2023-05-11T04:02:59.779Z,28.5876
2023-05-11T04:18:01.641Z,28.1004
2023-05-11T04:33:03.387Z,28.1914
2023-05-11T04:48:05.118Z,27.5024
2023-05-11T05:03:06.881Z,27.8924
2023-05-11T05:18:08.653Z,27.6974
2023-05-11T05:33:10.449Z,27.2783
2023-05-11T05:48:12.124Z,27.2944
2023-05-11T06:03:13.848Z,27.1805
2023-05-11T06:18:15.636Z,27.1254
2023-05-11T06:33:17.341Z,27.5247
2023-05-11T06:48:18.985Z,26.8747
2023-05-11T07:03:20.619Z,26.4395
2023-05-11T07:18:22.280Z,26.3225
2023-05-11T07:33:23.934Z,26.3027
2023-05-11T07:48:25.586Z,26.1176
2023-05-11T08:03:27.372Z,25.9814
2023-05-11T08:18:29.175Z,26.3318
2023-05-11T08:33:37.763Z,25.8607
2023-05-11T08:48:40.210Z,25.6979
2023-05-11T09:03:41.920Z,25.3698
2023-05-11T09:18:43.613Z,25.584
2023-05-11T09:33:45.351Z,25.1488
2023-05-11T09:48:47.059Z,25.246
2023-05-11T10:03:48.969Z,25.2559
2023-05-11T10:18:50.849Z,25.259
2023-05-11T10:33:52.581Z,24.6449
2023-05-11T10:48:54.280Z,24.856
2023-05-11T11:03:55.973Z,24.6542
2023-05-11T11:18:57.701Z,24.3911
2023-05-11T11:33:59.491Z,24.531
2023-05-11T11:49:01.210Z,24.583
2023-05-11T12:04:03.180Z,24.1509
2023-05-11T12:19:05.078Z,24.2382
2023-05-11T12:34:06.801Z,24.3583
2023-05-11T12:49:08.539Z,23.9553
2023-05-11T13:04:10.248Z,23.9423
2023-05-11T13:19:12.000Z,23.8284
2023-05-11T13:34:13.745Z,23.647
2023-05-11T13:49:15.390Z,24.31
2023-05-11T14:04:17.046Z,24.3521
2023-05-11T14:19:18.925Z,23.9949
2023-05-11T14:34:20.620Z,24.076
2023-05-11T14:49:22.257Z,24.1992
2023-05-11T15:04:23.976Z,24.011
2023-05-11T15:19:25.661Z,24.2549
2023-05-11T15:34:27.353Z,24.4883
2023-05-11T15:49:29.326Z,24.1831
2023-05-11T16:04:31.021Z,24.1441
2023-05-11T16:19:32.758Z,24.4722
2023-05-11T16:34:34.440Z,24.4202
2023-05-11T16:49:36.136Z,23.8779
2023-05-11T17:04:37.843Z,24.2252
2023-05-11T17:19:39.520Z,24.0432
2023-05-11T17:34:41.242Z,23.907
2023-05-11T17:49:42.972Z,24.024
2023-05-11T18:04:44.668Z,24.154
2023-05-11T18:19:46.375Z,23.7281
2023-05-11T18:34:48.141Z,23.3901
2023-05-11T18:49:49.853Z,23.9522
2023-05-11T19:04:51.615Z,23.4879
2023-05-11T19:19:53.324Z,24.1342
2023-05-11T19:34:55.116Z,23.7448
2023-05-11T19:49:56.855Z,24.0079
2023-05-11T20:04:58.596Z,24.466
2023-05-11T20:20:00.334Z,24.6288
2023-05-11T20:35:02.165Z,25.4707
2023-05-11T20:50:03.941Z,25.8087
2023-05-11T21:05:05.695Z,26.2507
2023-05-11T21:20:07.385Z,26.3386
2023-05-11T21:35:09.082Z,26.3875
2023-05-11T21:50:10.785Z,26.5825
2023-05-11T22:05:12.474Z,28.6885
2023-05-11T22:20:14.172Z,28.5201
2023-05-11T22:35:15.959Z,28.6173
2023-05-11T22:50:17.900Z,28.491
2023-05-11T23:05:19.771Z,29.0661
2023-05-11T23:20:21.650Z,28.465
2023-05-11T23:35:23.513Z,28.6891
2023-05-11T23:50:25.208Z,28.9163
